Ursa — WDA3206 — position and weather

sailwx.info

Track history (hours):
 
Tides and Currents Weather Stations Pressure Air Temp Water Temp Dewpoint Dewpoint Depression Visibility Wind Speed Wind Dir Waves Ship Positions

Ursa

Owner: FISHER, CHARLES H, LAKE OSWEGO, OR. More information available from US FCC via Universal Licensing System and Coast Guard Vessel Documentation Center.

Last reported at 2018-Jul-20 22:35 UTC. Time now 2018-Jul-22 14:26 UTC.
Position N 45°36' W 122°38'.

Length 11 m.

Type: Sailing vessel. MMSI: 366795790.

Date/timePositionNaut miles runAvg speedWind from/ knotsBaromVisibWave heightAir tempDewpointWater temp
2018-Jul-20 22:35N 45°36' W 122°38'0 0.0
2018-Jul-20 22:26N 45°36' W 122°38'0 0.0
2018-Jul-20 21:59N 45°36' W 122°38'0 0.0
2018-Jul-20 21:08N 45°36' W 122°38'0 0.0
2018-Jul-20 20:56N 45°36' W 122°38'0 0.0
2018-Jul-20 20:23N 45°36' W 122°38'1 2.6
2018-Jul-20 19:57N 45°37' W 122°39'3 3.8
2018-Jul-20 19:16N 45°38' W 122°42'1 4.3
2018-Jul-20 19:00N 45°38' W 122°44'0 0.7
2018-Jul-20 18:22N 45°38' W 122°44'0 0.0
2018-Jul-20 17:35N 45°38' W 122°44'0 0.0
2018-Jul-20 16:01N 45°38' W 122°44'0 0.0
2018-Jul-20 15:43N 45°38' W 122°44'0 0.0
2018-Jul-20 15:25N 45°38' W 122°44'0 0.0
2018-Jul-20 14:55N 45°38' W 122°44'0 0.0
2018-Jul-20 14:10N 45°38' W 122°44'0 0.0
2018-Jul-20 13:43N 45°38' W 122°44'0 0.0
2018-Jul-20 13:25N 45°38' W 122°44'0 0.1
2018-Jul-20 12:58N 45°38' W 122°44'0 0.0
2018-Jul-20 12:28N 45°38' W 122°44'0 0.0
2018-Jul-20 11:58N 45°38' W 122°44'0 0.0
2018-Jul-20 11:28N 45°38' W 122°44'0 0.1
2018-Jul-20 10:58N 45°38' W 122°44'0 0.1
2018-Jul-20 10:25N 45°38' W 122°44'0 0.0
2018-Jul-20 09:58N 45°38' W 122°44'0 0.0
2018-Jul-20 09:28N 45°38' W 122°44'0 0.0
2018-Jul-20 08:55N 45°38' W 122°44'0 0.0
2018-Jul-20 08:25N 45°38' W 122°44'0 0.0
2018-Jul-20 07:52N 45°38' W 122°44'0 0.0
2018-Jul-20 06:46N 45°38' W 122°44'0 0.0
2018-Jul-20 06:22N 45°38' W 122°44'0 0.0
2018-Jul-20 05:58N 45°38' W 122°44'0 0.0
2018-Jul-20 05:28N 45°38' W 122°44'0 0.0
2018-Jul-20 04:52N 45°38' W 122°44'0 0.0
2018-Jul-20 04:28N 45°38' W 122°44'0 0.0
2018-Jul-20 03:34N 45°38' W 122°44'0 0.0
2018-Jul-20 03:16N 45°38' W 122°44'0 0.0
2018-Jul-20 02:25N 45°38' W 122°44'0 0.1
2018-Jul-20 01:58N 45°38' W 122°44'0 0.0
2018-Jul-20 01:13N 45°38' W 122°44'0 0.0
2018-Jul-20 00:52N 45°38' W 122°44'0 0.0
2018-Jul-20 00:19N 45°38' W 122°44'0 0.0
2018-Jul-19 23:58N 45°38' W 122°44'0 0.0
2018-Jul-19 23:25N 45°38' W 122°44'0 0.0
2018-Jul-19 22:58N 45°38' W 122°44'0 0.3
2018-Jul-19 22:30N 45°38' W 122°44'2 3.2
2018-Jul-19 21:59N 45°38' W 122°47'2 3.7
2018-Jul-19 21:30N 45°37' W 122°48'2 4.3
2018-Jul-19 20:56N 45°39' W 122°51'2 4.2
2018-Jul-19 20:30N 45°41' W 122°52'2 4.2
2018-Jul-19 20:00N 45°43' W 122°52'2 3.7
2018-Jul-19 19:27N 45°45' W 122°50'2 3.6
2018-Jul-19 19:00N 45°46' W 122°49'0 0.4
2018-Jul-19 18:30N 45°46' W 122°49'0 0.0
2018-Jul-19 17:57N 45°46' W 122°49'0 0.0
2018-Jul-19 17:12N 45°46' W 122°49'0 0.0
2018-Jul-19 16:45N 45°46' W 122°49'0 0.0
2018-Jul-19 16:30N 45°46' W 122°49'0 0.0
2018-Jul-19 15:21N 45°46' W 122°49'0 0.0
2018-Jul-19 14:48N 45°46' W 122°49'0 0.0
2018-Jul-19 14:27N 45°46' W 122°49'0 0.0
2018-Jul-19 13:18N 45°46' W 122°49'0 0.0
2018-Jul-19 12:54N 45°46' W 122°49'0 0.0
2018-Jul-19 12:30N 45°46' W 122°49'0 0.0
2018-Jul-19 11:48N 45°46' W 122°49'0 0.0
2018-Jul-19 11:27N 45°46' W 122°49'0 0.0
2018-Jul-19 11:00N 45°46' W 122°49'0 0.0
2018-Jul-19 10:30N 45°46' W 122°49'0 0.0
2018-Jul-19 09:54N 45°46' W 122°49'0 0.0
2018-Jul-19 09:30N 45°46' W 122°49'0 0.0
2018-Jul-19 09:00N 45°46' W 122°49'0 0.0
2018-Jul-19 08:30N 45°46' W 122°49'0 0.0
2018-Jul-19 07:57N 45°46' W 122°49'0 0.0
2018-Jul-19 07:30N 45°46' W 122°49'0 0.0
2018-Jul-19 06:57N 45°46' W 122°49'0 0.0
2018-Jul-19 06:30N 45°46' W 122°49'0 0.0
2018-Jul-19 05:57N 45°46' W 122°49'0 0.0
2018-Jul-19 05:27N 45°46' W 122°49'0 0.0
2018-Jul-19 04:54N 45°46' W 122°49'0 0.0
2018-Jul-19 04:30N 45°46' W 122°49'0 0.0
2018-Jul-19 04:00N 45°46' W 122°49'0 0.0
2018-Jul-19 03:06N 45°46' W 122°49'0 0.0
2018-Jul-19 03:00N 45°46' W 122°49'0 0.0
2018-Jul-19 02:21N 45°46' W 122°49'0 0.0
2018-Jul-19 02:00N 45°46' W 122°49'0 0.0
2018-Jul-19 01:30N 45°46' W 122°49'0 0.0
2018-Jul-19 01:00N 45°46' W 122°49'0 0.0
2018-Jul-19 00:30N 45°46' W 122°49'0 0.0
2018-Jul-19 00:00N 45°46' W 122°49'0 0.0
2018-Jul-18 23:30N 45°46' W 122°49'0 0.0
2018-Jul-18 22:54N 45°46' W 122°49'0 0.0
2018-Jul-18 22:15N 45°46' W 122°49'0 0.0
2018-Jul-18 21:57N 45°46' W 122°49'0 0.0
2018-Jul-18 21:30N 45°46' W 122°49'1 2.1
2018-Jul-18 20:59N 45°47' W 122°48'2 3.0
2018-Jul-18 20:28N 45°48' W 122°50'2 3.8
2018-Jul-18 20:00N 45°50' W 122°49'2 4.0
2018-Jul-18 19:29N 45°52' W 122°48'2 3.6
2018-Jul-18 18:58N 45°54' W 122°48'2 3.6
2018-Jul-18 18:21N 45°56' W 122°49'1 3.8
2018-Jul-18 18:00N 45°57' W 122°49'1 1.6
2018-Jul-18 17:23N 45°57' W 122°48'0 0.0
2018-Jul-18 16:59N 45°57' W 122°48'0 0.0
2018-Jul-18 16:29N 45°57' W 122°48'0 0.0
2018-Jul-18 15:59N 45°57' W 122°48'0 0.0
2018-Jul-18 15:26N 45°57' W 122°48'0 0.0
2018-Jul-18 14:59N 45°57' W 122°48'0 0.0
2018-Jul-18 14:26N 45°57' W 122°48'0 0.0
2018-Jul-18 13:29N 45°57' W 122°48'0 0.0
2018-Jul-18 12:56N 45°57' W 122°48'0 0.0
2018-Jul-18 12:11N 45°57' W 122°48'0 0.0
2018-Jul-18 11:59N 45°57' W 122°48'0 0.0
2018-Jul-18 11:23N 45°57' W 122°48'0 0.0
2018-Jul-18 10:29N 45°57' W 122°48'0 0.0
2018-Jul-18 09:59N 45°57' W 122°48'0 0.0
2018-Jul-18 09:29N 45°57' W 122°48'0 0.0
2018-Jul-18 08:59N 45°57' W 122°48'0 0.0
2018-Jul-18 08:29N 45°57' W 122°48'0 0.0
2018-Jul-18 07:59N 45°57' W 122°48'0 0.0
2018-Jul-18 07:29N 45°57' W 122°48'0 0.0
2018-Jul-18 06:56N 45°57' W 122°48'0 0.0
2018-Jul-18 06:29N 45°57' W 122°48'0 0.0
2018-Jul-18 05:56N 45°57' W 122°48'0 0.0
2018-Jul-18 05:23N 45°57' W 122°48'0 0.0
2018-Jul-18 04:47N 45°57' W 122°48'0 0.0
2018-Jul-18 04:29N 45°57' W 122°48'0 0.0
2018-Jul-18 03:44N 45°57' W 122°48'0 0.0
2018-Jul-18 03:23N 45°57' W 122°48'0 0.0
2018-Jul-18 02:56N 45°57' W 122°48'0 0.0
2018-Jul-18 02:29N 45°57' W 122°48'0 0.0
2018-Jul-18 01:59N 45°57' W 122°48'0 0.0
2018-Jul-18 01:29N 45°57' W 122°48'0 0.0
2018-Jul-18 00:35N 45°57' W 122°48'0 0.0
2018-Jul-18 00:29N 45°57' W 122°48'0 0.0
2018-Jul-17 23:59N 45°57' W 122°48'0 0.0
2018-Jul-17 23:29N 45°57' W 122°48'0 0.0
2018-Jul-17 22:59N 45°57' W 122°48'0 0.0
2018-Jul-17 22:23N 45°57' W 122°48'0 0.0
2018-Jul-17 21:59N 45°57' W 122°48'0 0.0
2018-Jul-17 21:29N 45°57' W 122°48'0 0.0
2018-Jul-17 20:59N 45°57' W 122°48'0 0.0
2018-Jul-17 20:29N 45°57' W 122°48'0 0.0
2018-Jul-17 19:59N 45°57' W 122°48'0 0.0
2018-Jul-17 19:29N 45°57' W 122°48'0 0.0
2018-Jul-17 18:59N 45°57' W 122°48'0 0.0
2018-Jul-17 18:23N 45°57' W 122°48'0 0.0
2018-Jul-17 17:59N 45°57' W 122°48'0 0.0
2018-Jul-17 17:29N 45°57' W 122°48'0 0.0
2018-Jul-17 16:53N 45°57' W 122°48'0 0.0
2018-Jul-17 16:02N 45°57' W 122°48'0 0.1
2018-Jul-17 15:59N 45°57' W 122°48'0 0.0
2018-Jul-17 15:23N 45°57' W 122°48'0 0.0
2018-Jul-17 14:59N 45°57' W 122°48'0 0.0
2018-Jul-17 14:26N 45°57' W 122°48'0 0.0
2018-Jul-17 13:59N 45°57' W 122°48'0 0.0
2018-Jul-17 13:17N 45°57' W 122°48'0 0.0
2018-Jul-17 12:59N 45°57' W 122°48'0 0.0
2018-Jul-17 12:29N 45°57' W 122°48'0 0.0
2018-Jul-17 11:23N 45°57' W 122°48'0 0.0
2018-Jul-17 10:59N 45°57' W 122°48'0 0.0
2018-Jul-17 10:14N 45°57' W 122°48'0 0.0
2018-Jul-17 09:56N 45°57' W 122°48'0 0.0
2018-Jul-17 09:26N 45°57' W 122°48'0 0.0
2018-Jul-17 08:59N 45°57' W 122°48'0 0.0
2018-Jul-17 08:29N 45°57' W 122°48'0 0.0
2018-Jul-17 07:59N 45°57' W 122°48'0 0.0
2018-Jul-17 07:29N 45°57' W 122°48'0 0.0
2018-Jul-17 06:59N 45°57' W 122°48'0 0.0
2018-Jul-17 06:29N 45°57' W 122°48'0 0.0
2018-Jul-17 05:59N 45°57' W 122°48'0 0.0
2018-Jul-17 05:29N 45°57' W 122°48'0 0.0
2018-Jul-17 04:59N 45°57' W 122°48'0 0.0
2018-Jul-17 04:29N 45°57' W 122°48'0 0.0
2018-Jul-17 03:59N 45°57' W 122°48'0 0.0
2018-Jul-17 03:29N 45°57' W 122°48'0 0.0
2018-Jul-17 02:56N 45°57' W 122°48'0 0.0
2018-Jul-17 02:29N 45°57' W 122°48'0 0.0
2018-Jul-17 01:56N 45°57' W 122°48'0 0.0
2018-Jul-17 01:29N 45°57' W 122°48'0 0.0
2018-Jul-17 00:47N 45°57' W 122°48'0 0.0
2018-Jul-17 00:23N 45°57' W 122°48'0 0.0
2018-Jul-16 23:23N 45°57' W 122°48'0 0.0
2018-Jul-16 22:59N 45°57' W 122°48'0 0.0
2018-Jul-16 22:26N 45°57' W 122°48'0 0.0
2018-Jul-16 21:59N 45°57' W 122°48'0 0.0
2018-Jul-16 21:26N 45°57' W 122°48'0 0.0
2018-Jul-16 20:56N 45°57' W 122°48'0 0.0
2018-Jul-16 20:29N 45°57' W 122°48'0 0.0
2018-Jul-16 19:47N 45°57' W 122°48'0 0.0
2018-Jul-16 18:56N 45°57' W 122°48'0 0.0
2018-Jul-16 18:20N 45°57' W 122°48'0 0.0
2018-Jul-16 17:50N 45°57' W 122°48'0 0.0
2018-Jul-16 17:26N 45°57' W 122°48'0 0.0
2018-Jul-16 16:50N 45°57' W 122°48'0 0.0
2018-Jul-16 16:26N 45°57' W 122°48'0 0.0
2018-Jul-16 15:56N 45°57' W 122°48'0 0.0
2018-Jul-16 15:23N 45°57' W 122°48'0 0.0
2018-Jul-16 14:59N 45°57' W 122°48'0 0.0
2018-Jul-16 14:29N 45°57' W 122°48'0 0.0
2018-Jul-16 13:56N 45°57' W 122°48'0 0.0
2018-Jul-16 13:29N 45°57' W 122°48'0 0.0
2018-Jul-16 12:53N 45°57' W 122°48'0 0.0
2018-Jul-16 12:29N 45°57' W 122°48'0 0.0
2018-Jul-16 11:56N 45°57' W 122°48'0 0.0
2018-Jul-16 11:26N 45°57' W 122°48'0 0.0
2018-Jul-16 10:59N 45°57' W 122°48'0 0.0
2018-Jul-16 10:29N 45°57' W 122°48'0 0.0
2018-Jul-16 09:59N 45°57' W 122°48'0 0.0
2018-Jul-16 09:26N 45°57' W 122°48'0 0.0
2018-Jul-16 08:59N 45°57' W 122°48'0 0.0
2018-Jul-16 08:26N 45°57' W 122°48'0 0.0
2018-Jul-16 07:59N 45°57' W 122°48'0 0.0
2018-Jul-16 07:23N 45°57' W 122°48'0 0.0
2018-Jul-16 06:59N 45°57' W 122°48'0 0.0
2018-Jul-16 06:29N 45°57' W 122°48'0 0.0
2018-Jul-16 05:59N 45°57' W 122°48'0 0.0
2018-Jul-16 05:29N 45°57' W 122°48'0 0.0
2018-Jul-16 04:56N 45°57' W 122°48'0 0.0
2018-Jul-16 04:26N 45°57' W 122°48'0 0.0
2018-Jul-16 03:59N 45°57' W 122°48'0 0.0
2018-Jul-16 03:29N 45°57' W 122°48'0 0.0
2018-Jul-16 02:56N 45°57' W 122°48'0 0.0
2018-Jul-16 02:26N 45°57' W 122°48'0 0.0
2018-Jul-16 01:44N 45°57' W 122°48'0 0.0
2018-Jul-16 01:29N 45°57' W 122°48'0 0.0
2018-Jul-16 00:59N 45°57' W 122°48'0 0.0
2018-Jul-16 00:29N 45°57' W 122°48'0 0.0
2018-Jul-15 23:59N 45°57' W 122°48'0 0.0
2018-Jul-15 23:26N 45°57' W 122°48'0 0.0
2018-Jul-15 22:53N 45°57' W 122°48'0 0.0
2018-Jul-15 22:29N 45°57' W 122°48'0 0.6
2018-Jul-15 22:00N 45°57' W 122°47'3 5.6
2018-Jul-15 21:28N 45°54' W 122°48'1 2.5
2018-Jul-15 21:00N 45°53' W 122°48'3 6.2
2018-Jul-15 20:29N 45°50' W 122°48'3 6.3
2018-Jul-15 20:00N 45°47' W 122°47'3 6.4
2018-Jul-15 19:30N 45°44' W 122°46'3 6.7
2018-Jul-15 18:59N 45°40' W 122°46'3 6.2
2018-Jul-15 18:30N 45°38' W 122°43'1 2.6
2018-Jul-15 18:00N 45°37' W 122°41'2 3.6
2018-Jul-15 17:28N 45°37' W 122°39'  
Track history (hours):
 
Tides and Currents Weather Stations Pressure Air Temp Water Temp Dewpoint Dewpoint Depression Visibility Wind Speed Wind Dir Waves Ship Positions

Ursa

Owner: FISHER, CHARLES H, LAKE OSWEGO, OR. More information available from US FCC via Universal Licensing System and Coast Guard Vessel Documentation Center.

Last reported at 2018-Jul-20 22:35 UTC. Time now 2018-Jul-22 14:26 UTC.
Position N 45°36' W 122°38'.

Length 11 m.

Type: Sailing vessel. MMSI: 366795790.

Date/timePositionNaut miles runAvg speedWind from/ knotsBaromVisibWave heightAir tempDewpointWater temp
2018-Jul-20 22:35N 45°36' W 122°38'0 0.0
2018-Jul-20 22:26N 45°36' W 122°38'0 0.0
2018-Jul-20 21:59N 45°36' W 122°38'0 0.0
2018-Jul-20 21:08N 45°36' W 122°38'0 0.0
2018-Jul-20 20:56N 45°36' W 122°38'0 0.0
2018-Jul-20 20:23N 45°36' W 122°38'1 2.6
2018-Jul-20 19:57N 45°37' W 122°39'3 3.8
2018-Jul-20 19:16N 45°38' W 122°42'1 4.3
2018-Jul-20 19:00N 45°38' W 122°44'0 0.7
2018-Jul-20 18:22N 45°38' W 122°44'0 0.0
2018-Jul-20 17:35N 45°38' W 122°44'0 0.0
2018-Jul-20 16:01N 45°38' W 122°44'0 0.0
2018-Jul-20 15:43N 45°38' W 122°44'0 0.0
2018-Jul-20 15:25N 45°38' W 122°44'0 0.0
2018-Jul-20 14:55N 45°38' W 122°44'0 0.0
2018-Jul-20 14:10N 45°38' W 122°44'0 0.0
2018-Jul-20 13:43N 45°38' W 122°44'0 0.0
2018-Jul-20 13:25N 45°38' W 122°44'0 0.1
2018-Jul-20 12:58N 45°38' W 122°44'0 0.0
2018-Jul-20 12:28N 45°38' W 122°44'0 0.0
2018-Jul-20 11:58N 45°38' W 122°44'0 0.0
2018-Jul-20 11:28N 45°38' W 122°44'0 0.1
2018-Jul-20 10:58N 45°38' W 122°44'0 0.1
2018-Jul-20 10:25N 45°38' W 122°44'0 0.0
2018-Jul-20 09:58N 45°38' W 122°44'0 0.0
2018-Jul-20 09:28N 45°38' W 122°44'0 0.0
2018-Jul-20 08:55N 45°38' W 122°44'0 0.0
2018-Jul-20 08:25N 45°38' W 122°44'0 0.0
2018-Jul-20 07:52N 45°38' W 122°44'0 0.0
2018-Jul-20 06:46N 45°38' W 122°44'0 0.0
2018-Jul-20 06:22N 45°38' W 122°44'0 0.0
2018-Jul-20 05:58N 45°38' W 122°44'0 0.0
2018-Jul-20 05:28N 45°38' W 122°44'0 0.0
2018-Jul-20 04:52N 45°38' W 122°44'0 0.0
2018-Jul-20 04:28N 45°38' W 122°44'0 0.0
2018-Jul-20 03:34N 45°38' W 122°44'0 0.0
2018-Jul-20 03:16N 45°38' W 122°44'0 0.0
2018-Jul-20 02:25N 45°38' W 122°44'0 0.1
2018-Jul-20 01:58N 45°38' W 122°44'0 0.0
2018-Jul-20 01:13N 45°38' W 122°44'0 0.0
2018-Jul-20 00:52N 45°38' W 122°44'0 0.0
2018-Jul-20 00:19N 45°38' W 122°44'0 0.0
2018-Jul-19 23:58N 45°38' W 122°44'0 0.0
2018-Jul-19 23:25N 45°38' W 122°44'0 0.0
2018-Jul-19 22:58N 45°38' W 122°44'0 0.3
2018-Jul-19 22:30N 45°38' W 122°44'2 3.2
2018-Jul-19 21:59N 45°38' W 122°47'2 3.7
2018-Jul-19 21:30N 45°37' W 122°48'2 4.3
2018-Jul-19 20:56N 45°39' W 122°51'2 4.2
2018-Jul-19 20:30N 45°41' W 122°52'2 4.2
2018-Jul-19 20:00N 45°43' W 122°52'2 3.7
2018-Jul-19 19:27N 45°45' W 122°50'2 3.6
2018-Jul-19 19:00N 45°46' W 122°49'0 0.4
2018-Jul-19 18:30N 45°46' W 122°49'0 0.0
2018-Jul-19 17:57N 45°46' W 122°49'0 0.0
2018-Jul-19 17:12N 45°46' W 122°49'0 0.0
2018-Jul-19 16:45N 45°46' W 122°49'0 0.0
2018-Jul-19 16:30N 45°46' W 122°49'0 0.0
2018-Jul-19 15:21N 45°46' W 122°49'0 0.0
2018-Jul-19 14:48N 45°46' W 122°49'0 0.0
2018-Jul-19 14:27N 45°46' W 122°49'0 0.0
2018-Jul-19 13:18N 45°46' W 122°49'0 0.0
2018-Jul-19 12:54N 45°46' W 122°49'0 0.0
2018-Jul-19 12:30N 45°46' W 122°49'0 0.0
2018-Jul-19 11:48N 45°46' W 122°49'0 0.0
2018-Jul-19 11:27N 45°46' W 122°49'0 0.0
2018-Jul-19 11:00N 45°46' W 122°49'0 0.0
2018-Jul-19 10:30N 45°46' W 122°49'0 0.0
2018-Jul-19 09:54N 45°46' W 122°49'0 0.0
2018-Jul-19 09:30N 45°46' W 122°49'0 0.0
2018-Jul-19 09:00N 45°46' W 122°49'0 0.0
2018-Jul-19 08:30N 45°46' W 122°49'0 0.0
2018-Jul-19 07:57N 45°46' W 122°49'0 0.0
2018-Jul-19 07:30N 45°46' W 122°49'0 0.0
2018-Jul-19 06:57N 45°46' W 122°49'0 0.0
2018-Jul-19 06:30N 45°46' W 122°49'0 0.0
2018-Jul-19 05:57N 45°46' W 122°49'0 0.0
2018-Jul-19 05:27N 45°46' W 122°49'0 0.0
2018-Jul-19 04:54N 45°46' W 122°49'0 0.0
2018-Jul-19 04:30N 45°46' W 122°49'0 0.0
2018-Jul-19 04:00N 45°46' W 122°49'0 0.0
2018-Jul-19 03:06N 45°46' W 122°49'0 0.0
2018-Jul-19 03:00N 45°46' W 122°49'0 0.0
2018-Jul-19 02:21N 45°46' W 122°49'0 0.0
2018-Jul-19 02:00N 45°46' W 122°49'0 0.0
2018-Jul-19 01:30N 45°46' W 122°49'0 0.0
2018-Jul-19 01:00N 45°46' W 122°49'0 0.0
2018-Jul-19 00:30N 45°46' W 122°49'0 0.0
2018-Jul-19 00:00N 45°46' W 122°49'0 0.0
2018-Jul-18 23:30N 45°46' W 122°49'0 0.0
2018-Jul-18 22:54N 45°46' W 122°49'0 0.0
2018-Jul-18 22:15N 45°46' W 122°49'0 0.0
2018-Jul-18 21:57N 45°46' W 122°49'0 0.0
2018-Jul-18 21:30N 45°46' W 122°49'1 2.1
2018-Jul-18 20:59N 45°47' W 122°48'2 3.0
2018-Jul-18 20:28N 45°48' W 122°50'2 3.8
2018-Jul-18 20:00N 45°50' W 122°49'2 4.0
2018-Jul-18 19:29N 45°52' W 122°48'2 3.6
2018-Jul-18 18:58N 45°54' W 122°48'2 3.6
2018-Jul-18 18:21N 45°56' W 122°49'1 3.8
2018-Jul-18 18:00N 45°57' W 122°49'1 1.6
2018-Jul-18 17:23N 45°57' W 122°48'0 0.0
2018-Jul-18 16:59N 45°57' W 122°48'0 0.0
2018-Jul-18 16:29N 45°57' W 122°48'0 0.0
2018-Jul-18 15:59N 45°57' W 122°48'0 0.0
2018-Jul-18 15:26N 45°57' W 122°48'0 0.0
2018-Jul-18 14:59N 45°57' W 122°48'0 0.0
2018-Jul-18 14:26N 45°57' W 122°48'0 0.0
2018-Jul-18 13:29N 45°57' W 122°48'0 0.0
2018-Jul-18 12:56N 45°57' W 122°48'0 0.0
2018-Jul-18 12:11N 45°57' W 122°48'0 0.0
2018-Jul-18 11:59N 45°57' W 122°48'0 0.0
2018-Jul-18 11:23N 45°57' W 122°48'0 0.0
2018-Jul-18 10:29N 45°57' W 122°48'0 0.0
2018-Jul-18 09:59N 45°57' W 122°48'0 0.0
2018-Jul-18 09:29N 45°57' W 122°48'0 0.0
2018-Jul-18 08:59N 45°57' W 122°48'0 0.0
2018-Jul-18 08:29N 45°57' W 122°48'0 0.0
2018-Jul-18 07:59N 45°57' W 122°48'0 0.0
2018-Jul-18 07:29N 45°57' W 122°48'0 0.0
2018-Jul-18 06:56N 45°57' W 122°48'0 0.0
2018-Jul-18 06:29N 45°57' W 122°48'0 0.0
2018-Jul-18 05:56N 45°57' W 122°48'0 0.0
2018-Jul-18 05:23N 45°57' W 122°48'0 0.0
2018-Jul-18 04:47N 45°57' W 122°48'0 0.0
2018-Jul-18 04:29N 45°57' W 122°48'0 0.0
2018-Jul-18 03:44N 45°57' W 122°48'0 0.0
2018-Jul-18 03:23N 45°57' W 122°48'0 0.0
2018-Jul-18 02:56N 45°57' W 122°48'0 0.0
2018-Jul-18 02:29N 45°57' W 122°48'0 0.0
2018-Jul-18 01:59N 45°57' W 122°48'0 0.0
2018-Jul-18 01:29N 45°57' W 122°48'0 0.0
2018-Jul-18 00:35N 45°57' W 122°48'0 0.0
2018-Jul-18 00:29N 45°57' W 122°48'0 0.0
2018-Jul-17 23:59N 45°57' W 122°48'0 0.0
2018-Jul-17 23:29N 45°57' W 122°48'0 0.0
2018-Jul-17 22:59N 45°57' W 122°48'0 0.0
2018-Jul-17 22:23N 45°57' W 122°48'0 0.0
2018-Jul-17 21:59N 45°57' W 122°48'0 0.0
2018-Jul-17 21:29N 45°57' W 122°48'0 0.0
2018-Jul-17 20:59N 45°57' W 122°48'0 0.0
2018-Jul-17 20:29N 45°57' W 122°48'0 0.0
2018-Jul-17 19:59N 45°57' W 122°48'0 0.0
2018-Jul-17 19:29N 45°57' W 122°48'0 0.0
2018-Jul-17 18:59N 45°57' W 122°48'0 0.0
2018-Jul-17 18:23N 45°57' W 122°48'0 0.0
2018-Jul-17 17:59N 45°57' W 122°48'0 0.0
2018-Jul-17 17:29N 45°57' W 122°48'0 0.0
2018-Jul-17 16:53N 45°57' W 122°48'0 0.0
2018-Jul-17 16:02N 45°57' W 122°48'0 0.1
2018-Jul-17 15:59N 45°57' W 122°48'0 0.0
2018-Jul-17 15:23N 45°57' W 122°48'0 0.0
2018-Jul-17 14:59N 45°57' W 122°48'0 0.0
2018-Jul-17 14:26N 45°57' W 122°48'0 0.0
2018-Jul-17 13:59N 45°57' W 122°48'0 0.0
2018-Jul-17 13:17N 45°57' W 122°48'0 0.0
2018-Jul-17 12:59N 45°57' W 122°48'0 0.0
2018-Jul-17 12:29N 45°57' W 122°48'0 0.0
2018-Jul-17 11:23N 45°57' W 122°48'0 0.0
2018-Jul-17 10:59N 45°57' W 122°48'0 0.0
2018-Jul-17 10:14N 45°57' W 122°48'0 0.0
2018-Jul-17 09:56N 45°57' W 122°48'0 0.0
2018-Jul-17 09:26N 45°57' W 122°48'0 0.0
2018-Jul-17 08:59N 45°57' W 122°48'0 0.0
2018-Jul-17 08:29N 45°57' W 122°48'0 0.0
2018-Jul-17 07:59N 45°57' W 122°48'0 0.0
2018-Jul-17 07:29N 45°57' W 122°48'0 0.0
2018-Jul-17 06:59N 45°57' W 122°48'0 0.0
2018-Jul-17 06:29N 45°57' W 122°48'0 0.0
2018-Jul-17 05:59N 45°57' W 122°48'0 0.0
2018-Jul-17 05:29N 45°57' W 122°48'0 0.0
2018-Jul-17 04:59N 45°57' W 122°48'0 0.0
2018-Jul-17 04:29N 45°57' W 122°48'0 0.0
2018-Jul-17 03:59N 45°57' W 122°48'0 0.0
2018-Jul-17 03:29N 45°57' W 122°48'0 0.0
2018-Jul-17 02:56N 45°57' W 122°48'0 0.0
2018-Jul-17 02:29N 45°57' W 122°48'0 0.0
2018-Jul-17 01:56N 45°57' W 122°48'0 0.0
2018-Jul-17 01:29N 45°57' W 122°48'0 0.0
2018-Jul-17 00:47N 45°57' W 122°48'0 0.0
2018-Jul-17 00:23N 45°57' W 122°48'0 0.0
2018-Jul-16 23:23N 45°57' W 122°48'0 0.0
2018-Jul-16 22:59N 45°57' W 122°48'0 0.0
2018-Jul-16 22:26N 45°57' W 122°48'0 0.0
2018-Jul-16 21:59N 45°57' W 122°48'0 0.0
2018-Jul-16 21:26N 45°57' W 122°48'0 0.0
2018-Jul-16 20:56N 45°57' W 122°48'0 0.0
2018-Jul-16 20:29N 45°57' W 122°48'0 0.0
2018-Jul-16 19:47N 45°57' W 122°48'0 0.0
2018-Jul-16 18:56N 45°57' W 122°48'0 0.0
2018-Jul-16 18:20N 45°57' W 122°48'0 0.0
2018-Jul-16 17:50N 45°57' W 122°48'0 0.0
2018-Jul-16 17:26N 45°57' W 122°48'0 0.0
2018-Jul-16 16:50N 45°57' W 122°48'0 0.0
2018-Jul-16 16:26N 45°57' W 122°48'0 0.0
2018-Jul-16 15:56N 45°57' W 122°48'0 0.0
2018-Jul-16 15:23N 45°57' W 122°48'0 0.0
2018-Jul-16 14:59N 45°57' W 122°48'0 0.0
2018-Jul-16 14:29N 45°57' W 122°48'0 0.0
2018-Jul-16 13:56N 45°57' W 122°48'0 0.0
2018-Jul-16 13:29N 45°57' W 122°48'0 0.0
2018-Jul-16 12:53N 45°57' W 122°48'0 0.0
2018-Jul-16 12:29N 45°57' W 122°48'0 0.0
2018-Jul-16 11:56N 45°57' W 122°48'0 0.0
2018-Jul-16 11:26N 45°57' W 122°48'0 0.0
2018-Jul-16 10:59N 45°57' W 122°48'0 0.0
2018-Jul-16 10:29N 45°57' W 122°48'0 0.0
2018-Jul-16 09:59N 45°57' W 122°48'0 0.0
2018-Jul-16 09:26N 45°57' W 122°48'0 0.0
2018-Jul-16 08:59N 45°57' W 122°48'0 0.0
2018-Jul-16 08:26N 45°57' W 122°48'0 0.0
2018-Jul-16 07:59N 45°57' W 122°48'0 0.0
2018-Jul-16 07:23N 45°57' W 122°48'0 0.0
2018-Jul-16 06:59N 45°57' W 122°48'0 0.0
2018-Jul-16 06:29N 45°57' W 122°48'0 0.0
2018-Jul-16 05:59N 45°57' W 122°48'0 0.0
2018-Jul-16 05:29N 45°57' W 122°48'0 0.0
2018-Jul-16 04:56N 45°57' W 122°48'0 0.0
2018-Jul-16 04:26N 45°57' W 122°48'0 0.0
2018-Jul-16 03:59N 45°57' W 122°48'0 0.0
2018-Jul-16 03:29N 45°57' W 122°48'0 0.0
2018-Jul-16 02:56N 45°57' W 122°48'0 0.0
2018-Jul-16 02:26N 45°57' W 122°48'0 0.0
2018-Jul-16 01:44N 45°57' W 122°48'0 0.0
2018-Jul-16 01:29N 45°57' W 122°48'0 0.0
2018-Jul-16 00:59N 45°57' W 122°48'0 0.0
2018-Jul-16 00:29N 45°57' W 122°48'0 0.0
2018-Jul-15 23:59N 45°57' W 122°48'0 0.0
2018-Jul-15 23:26N 45°57' W 122°48'0 0.0
2018-Jul-15 22:53N 45°57' W 122°48'0 0.0
2018-Jul-15 22:29N 45°57' W 122°48'0 0.6
2018-Jul-15 22:00N 45°57' W 122°47'3 5.6
2018-Jul-15 21:28N 45°54' W 122°48'1 2.5
2018-Jul-15 21:00N 45°53' W 122°48'3 6.2
2018-Jul-15 20:29N 45°50' W 122°48'3 6.3
2018-Jul-15 20:00N 45°47' W 122°47'3 6.4
2018-Jul-15 19:30N 45°44' W 122°46'3 6.7
2018-Jul-15 18:59N 45°40' W 122°46'3 6.2
2018-Jul-15 18:30N 45°38' W 122°43'1 2.6
2018-Jul-15 18:00N 45°37' W 122°41'2 3.6
2018-Jul-15 17:28N 45°37' W 122°39'  

Dump ship's entire track history